Airport View

Enter AWOS ICAO identifier for current METAR.

ex. KFNL

MMCS 242048Z 24012KT 10SM SCT200 28/05 A3000 RMK SLP073 57040 968 8/002

25 Oct 2020 10:55

TAF MMCS 250447Z 2506/2606 00000KT P6SM SCT250 FM251800 24012KT P6SM BKN250 FM260500 24005KT P6SM SCT250